Ana Sayfa
METAR-TAF:

METAR-TAF

Havaalanları :

Yeni Chitose Havalimanı

Chitose, Japonya

Enlem: 42-48N, Boylam: 141-40E, yükseklik: 27 m

Güncel hava durumu gözlemi

Rapor saat 11:00 UTC de 32 dakika önce yapıldı.
Rüzgar kuzey/kuzeybatıdan 19 kt
Sıcaklık 10°C
Nem 71%
Basınç 1007 hPa
Görüş mesafesi 10 km veya daha fazla
800 ft yükseklikte az bulutlu
13000 ft yükseklikte parçalı bulutlu

METAR: RJCC 241100Z 33019KT 9999 FEW008 SCT130 10/05 Q1007 RMK 1ST008 3AC130 A2974

Saat: 20:32 (11:32 UTC)

Tahmin

Rapor saat 11:05 UTC de 27 dakika önce yapıldı.
Ayın 24'si saat 12 UTC'den ayın 25'si saat 18 UTC'ye kadar geçerli Tahmin
Rüzgar kuzeydan 18 kt
Görüş mesafesi 10 km veya daha fazla
1000 ft yükseklikte az bulutlu
2000 ft yükseklikte parçalı çok bulutlu
Dönüşüyor
ayın 25'si saat 12 UTC'den ayın 25'si saat 15 UTC'ye kadar
Rüzgar güney/güneydoğudan 5 kt

TAF: RJCC 241105Z 2412/2518 35018KT 9999 FEW010 BKN020 BECMG 2512/2515 16005KT

4.000'den fazla havaalanı için hava durumu gözlemleri ve tahminleri (METAR ve TAF raporları).

Kullanılabilir istasyonlar harita üzerinde sarı ve kırmızı noktalarla gösterilir.

İstasyonun adını görmek için fareyi noktanın üzerinde gezdirin.

Sonrasında hava gözlem ve tahminlerini görmek için tıklayın.

Haritayı değiştirmek için: yaklaştırmak için siyah artı işaretli yeşil düğmeye ve uzaklaştırmak için de eksi işaretli düğmeye hızla tıklayın; bitişik haritalar için yeşil okları kullanın.


METAR-TAF: